sensor_id;sensor_type;location;lat;lon;timestamp;P1;durP1;ratioP1;P2;durP2;ratioP2
22236;SDS011;11287;48.122;11.536;2022-12-13T00:01:31;13.27;;;7.25;;
22236;SDS011;11287;48.122;11.536;2022-12-13T00:03:58;17.73;;;7.72;;
22236;SDS011;11287;48.122;11.536;2022-12-13T00:06:26;17.10;;;6.95;;
22236;SDS011;11287;48.122;11.536;2022-12-13T00:08:52;12.20;;;7.18;;
22236;SDS011;11287;48.122;11.536;2022-12-13T00:11:18;17.40;;;7.55;;
22236;SDS011;11287;48.122;11.536;2022-12-13T00:13:43;13.63;;;7.93;;
22236;SDS011;11287;48.122;11.536;2022-12-13T00:16:12;13.45;;;7.05;;
22236;SDS011;11287;48.122;11.536;2022-12-13T00:18:39;12.77;;;6.88;;
22236;SDS011;11287;48.122;11.536;2022-12-13T00:21:08;15.35;;;7.20;;
22236;SDS011;11287;48.122;11.536;2022-12-13T00:23:37;12.25;;;6.65;;
22236;SDS011;11287;48.122;11.536;2022-12-13T00:26:03;14.63;;;7.57;;
22236;SDS011;11287;48.122;11.536;2022-12-13T00:28:29;13.93;;;6.72;;
22236;SDS011;11287;48.122;11.536;2022-12-13T00:30:56;12.32;;;6.35;;
22236;SDS011;11287;48.122;11.536;2022-12-13T00:33:22;15.10;;;7.80;;
22236;SDS011;11287;48.122;11.536;2022-12-13T00:35:47;15.40;;;7.97;;
22236;SDS011;11287;48.122;11.536;2022-12-13T00:38:13;22.38;;;7.88;;
22236;SDS011;11287;48.122;11.536;2022-12-13T00:40:38;18.13;;;7.55;;
22236;SDS011;11287;48.122;11.536;2022-12-13T00:43:03;15.60;;;8.23;;
22236;SDS011;11287;48.122;11.536;2022-12-13T00:45:29;11.93;;;6.93;;
22236;SDS011;11287;48.122;11.536;2022-12-13T00:47:54;15.38;;;7.50;;
22236;SDS011;11287;48.122;11.536;2022-12-13T00:50:19;12.77;;;7.20;;
22236;SDS011;11287;48.122;11.536;2022-12-13T00:52:45;16.70;;;8.05;;
22236;SDS011;11287;48.122;11.536;2022-12-13T00:55:10;18.98;;;7.78;;
22236;SDS011;11287;48.122;11.536;2022-12-13T00:57:35;19.80;;;6.90;;
22236;SDS011;11287;48.122;11.536;2022-12-13T01:00:00;16.98;;;7.75;;
22236;SDS011;11287;48.122;11.536;2022-12-13T01:02:26;13.45;;;7.07;;
22236;SDS011;11287;48.122;11.536;2022-12-13T01:04:51;15.70;;;7.78;;
22236;SDS011;11287;48.122;11.536;2022-12-13T01:07:16;13.45;;;6.18;;
22236;SDS011;11287;48.122;11.536;2022-12-13T01:09:42;14.05;;;8.30;;
22236;SDS011;11287;48.122;11.536;2022-12-13T01:12:08;13.80;;;7.18;;
22236;SDS011;11287;48.122;11.536;2022-12-13T01:14:35;13.48;;;6.88;;
22236;SDS011;11287;48.122;11.536;2022-12-13T01:17:01;13.90;;;6.35;;
22236;SDS011;11287;48.122;11.536;2022-12-13T01:19:27;11.68;;;6.25;;
22236;SDS011;11287;48.122;11.536;2022-12-13T01:21:53;15.65;;;7.18;;
22236;SDS011;11287;48.122;11.536;2022-12-13T01:24:22;16.63;;;7.20;;
22236;SDS011;11287;48.122;11.536;2022-12-13T01:26:48;13.30;;;6.63;;
22236;SDS011;11287;48.122;11.536;2022-12-13T01:29:14;15.52;;;7.20;;
22236;SDS011;11287;48.122;11.536;2022-12-13T01:31:39;13.15;;;7.00;;
22236;SDS011;11287;48.122;11.536;2022-12-13T01:34:06;13.80;;;6.53;;
22236;SDS011;11287;48.122;11.536;2022-12-13T01:36:37;9.93;;;6.07;;
22236;SDS011;11287;48.122;11.536;2022-12-13T01:39:03;14.15;;;6.65;;
22236;SDS011;11287;48.122;11.536;2022-12-13T01:41:29;16.17;;;7.00;;
22236;SDS011;11287;48.122;11.536;2022-12-13T01:43:56;14.48;;;6.43;;
22236;SDS011;11287;48.122;11.536;2022-12-13T01:46:25;13.48;;;6.32;;
22236;SDS011;11287;48.122;11.536;2022-12-13T01:51:18;14.52;;;7.40;;
22236;SDS011;11287;48.122;11.536;2022-12-13T01:53:45;11.93;;;6.65;;
22236;SDS011;11287;48.122;11.536;2022-12-13T01:56:13;13.32;;;7.13;;
22236;SDS011;11287;48.122;11.536;2022-12-13T01:58:42;13.75;;;7.20;;
22236;SDS011;11287;48.122;11.536;2022-12-13T02:01:07;12.38;;;7.18;;
22236;SDS011;11287;48.122;11.536;2022-12-13T02:03:33;16.20;;;7.30;;
22236;SDS011;11287;48.122;11.536;2022-12-13T02:06:04;14.82;;;7.57;;
22236;SDS011;11287;48.122;11.536;2022-12-13T02:08:32;18.00;;;7.25;;
22236;SDS011;11287;48.122;11.536;2022-12-13T02:10:58;16.77;;;8.23;;
22236;SDS011;11287;48.122;11.536;2022-12-13T02:13:24;17.27;;;7.30;;
22236;SDS011;11287;48.122;11.536;2022-12-13T02:21:02;12.75;;;6.75;;
22236;SDS011;11287;48.122;11.536;2022-12-13T02:23:43;16.95;;;7.60;;
22236;SDS011;11287;48.122;11.536;2022-12-13T02:26:40;17.02;;;8.00;;
22236;SDS011;11287;48.122;11.536;2022-12-13T02:32:19;13.13;;;7.60;;
22236;SDS011;11287;48.122;11.536;2022-12-13T02:35:05;15.18;;;8.02;;
22236;SDS011;11287;48.122;11.536;2022-12-13T02:37:41;16.80;;;8.68;;
22236;SDS011;11287;48.122;11.536;2022-12-13T02:42:51;16.63;;;8.00;;
22236;SDS011;11287;48.122;11.536;2022-12-13T02:45:25;19.90;;;8.60;;
22236;SDS011;11287;48.122;11.536;2022-12-13T02:47:54;14.70;;;7.95;;
22236;SDS011;11287;48.122;11.536;2022-12-13T02:50:21;21.13;;;8.45;;
22236;SDS011;11287;48.122;11.536;2022-12-13T02:52:48;19.25;;;9.50;;
22236;SDS011;11287;48.122;11.536;2022-12-13T02:55:14;16.58;;;8.55;;
22236;SDS011;11287;48.122;11.536;2022-12-13T02:57:41;21.42;;;8.73;;
22236;SDS011;11287;48.122;11.536;2022-12-13T03:11:07;20.70;;;8.50;;
22236;SDS011;11287;48.122;11.536;2022-12-13T03:16:39;17.23;;;7.75;;
22236;SDS011;11287;48.122;11.536;2022-12-13T03:19:07;14.60;;;7.05;;
22236;SDS011;11287;48.122;11.536;2022-12-13T03:21:44;14.02;;;7.57;;
22236;SDS011;11287;48.122;11.536;2022-12-13T03:24:10;16.70;;;8.00;;
22236;SDS011;11287;48.122;11.536;2022-12-13T03:26:36;16.40;;;7.82;;
22236;SDS011;11287;48.122;11.536;2022-12-13T03:29:02;17.55;;;8.07;;
22236;SDS011;11287;48.122;11.536;2022-12-13T03:31:28;20.30;;;8.65;;
22236;SDS011;11287;48.122;11.536;2022-12-13T03:33:53;20.17;;;9.02;;
22236;SDS011;11287;48.122;11.536;2022-12-13T03:36:18;21.02;;;9.38;;
22236;SDS011;11287;48.122;11.536;2022-12-13T03:38:47;17.15;;;8.27;;
22236;SDS011;11287;48.122;11.536;2022-12-13T03:41:16;14.77;;;8.13;;
22236;SDS011;11287;48.122;11.536;2022-12-13T03:43:43;15.45;;;8.48;;
22236;SDS011;11287;48.122;11.536;2022-12-13T03:46:08;18.90;;;9.20;;
22236;SDS011;11287;48.122;11.536;2022-12-13T03:48:34;16.40;;;8.30;;
22236;SDS011;11287;48.122;11.536;2022-12-13T03:50:59;15.50;;;7.80;;
22236;SDS011;11287;48.122;11.536;2022-12-13T03:53:26;18.38;;;8.18;;
22236;SDS011;11287;48.122;11.536;2022-12-13T03:55:51;16.30;;;8.80;;
22236;SDS011;11287;48.122;11.536;2022-12-13T03:58:17;20.88;;;8.35;;
22236;SDS011;11287;48.122;11.536;2022-12-13T04:00:43;19.08;;;9.02;;
22236;SDS011;11287;48.122;11.536;2022-12-13T04:03:08;17.50;;;8.05;;
22236;SDS011;11287;48.122;11.536;2022-12-13T04:05:33;19.48;;;8.73;;
22236;SDS011;11287;48.122;11.536;2022-12-13T04:07:59;21.88;;;9.32;;
22236;SDS011;11287;48.122;11.536;2022-12-13T04:10:24;18.25;;;8.88;;
22236;SDS011;11287;48.122;11.536;2022-12-13T04:12:50;18.63;;;8.50;;
22236;SDS011;11287;48.122;11.536;2022-12-13T04:15:34;16.67;;;8.85;;
22236;SDS011;11287;48.122;11.536;2022-12-13T04:18:00;21.45;;;8.65;;
22236;SDS011;11287;48.122;11.536;2022-12-13T04:20:25;18.70;;;9.25;;
22236;SDS011;11287;48.122;11.536;2022-12-13T04:22:50;18.67;;;9.82;;
22236;SDS011;11287;48.122;11.536;2022-12-13T04:25:15;18.33;;;9.27;;
22236;SDS011;11287;48.122;11.536;2022-12-13T04:27:41;19.60;;;9.48;;
22236;SDS011;11287;48.122;11.536;2022-12-13T04:30:06;19.10;;;8.85;;
22236;SDS011;11287;48.122;11.536;2022-12-13T04:32:32;19.02;;;9.50;;
22236;SDS011;11287;48.122;11.536;2022-12-13T04:34:58;21.20;;;10.05;;
22236;SDS011;11287;48.122;11.536;2022-12-13T04:37:23;22.20;;;9.93;;
22236;SDS011;11287;48.122;11.536;2022-12-13T04:39:49;17.50;;;8.80;;
22236;SDS011;11287;48.122;11.536;2022-12-13T04:42:14;19.13;;;9.80;;
22236;SDS011;11287;48.122;11.536;2022-12-13T04:44:39;19.60;;;9.02;;
22236;SDS011;11287;48.122;11.536;2022-12-13T04:47:05;15.88;;;8.38;;
22236;SDS011;11287;48.122;11.536;2022-12-13T04:49:30;17.83;;;8.75;;
22236;SDS011;11287;48.122;11.536;2022-12-13T04:51:56;17.52;;;9.35;;
22236;SDS011;11287;48.122;11.536;2022-12-13T04:54:21;18.92;;;8.82;;
22236;SDS011;11287;48.122;11.536;2022-12-13T04:56:47;24.23;;;8.95;;
22236;SDS011;11287;48.122;11.536;2022-12-13T04:59:13;18.55;;;8.45;;
22236;SDS011;11287;48.122;11.536;2022-12-13T05:01:38;16.58;;;7.53;;
22236;SDS011;11287;48.122;11.536;2022-12-13T05:04:03;15.38;;;8.43;;
22236;SDS011;11287;48.122;11.536;2022-12-13T05:06:29;17.10;;;8.25;;
22236;SDS011;11287;48.122;11.536;2022-12-13T05:08:54;20.58;;;9.32;;
22236;SDS011;11287;48.122;11.536;2022-12-13T05:11:20;19.05;;;8.55;;
22236;SDS011;11287;48.122;11.536;2022-12-13T05:13:45;17.70;;;8.52;;
22236;SDS011;11287;48.122;11.536;2022-12-13T05:16:11;15.73;;;6.82;;
22236;SDS011;11287;48.122;11.536;2022-12-13T05:18:36;12.40;;;6.15;;
22236;SDS011;11287;48.122;11.536;2022-12-13T05:21:06;14.50;;;7.93;;
22236;SDS011;11287;48.122;11.536;2022-12-13T05:23:33;20.45;;;7.72;;
22236;SDS011;11287;48.122;11.536;2022-12-13T05:25:59;19.45;;;8.52;;
22236;SDS011;11287;48.122;11.536;2022-12-13T05:28:24;24.40;;;8.70;;
22236;SDS011;11287;48.122;11.536;2022-12-13T05:30:52;17.20;;;7.22;;
22236;SDS011;11287;48.122;11.536;2022-12-13T05:33:18;14.65;;;6.60;;
22236;SDS011;11287;48.122;11.536;2022-12-13T05:35:43;15.43;;;6.65;;
22236;SDS011;11287;48.122;11.536;2022-12-13T05:38:09;17.48;;;7.43;;
22236;SDS011;11287;48.122;11.536;2022-12-13T05:40:34;10.43;;;5.32;;
22236;SDS011;11287;48.122;11.536;2022-12-13T05:43:00;13.25;;;6.15;;
22236;SDS011;11287;48.122;11.536;2022-12-13T05:45:25;12.95;;;6.85;;
22236;SDS011;11287;48.122;11.536;2022-12-13T05:47:50;13.73;;;7.03;;
22236;SDS011;11287;48.122;11.536;2022-12-13T05:50:16;15.30;;;6.85;;
22236;SDS011;11287;48.122;11.536;2022-12-13T05:52:42;12.60;;;6.93;;
22236;SDS011;11287;48.122;11.536;2022-12-13T05:55:08;15.48;;;6.72;;
22236;SDS011;11287;48.122;11.536;2022-12-13T05:57:34;13.68;;;6.55;;
22236;SDS011;11287;48.122;11.536;2022-12-13T05:59:59;12.23;;;6.68;;
22236;SDS011;11287;48.122;11.536;2022-12-13T06:02:24;16.02;;;7.38;;
22236;SDS011;11287;48.122;11.536;2022-12-13T06:04:50;14.77;;;7.13;;
22236;SDS011;11287;48.122;11.536;2022-12-13T06:07:15;12.75;;;6.32;;
22236;SDS011;11287;48.122;11.536;2022-12-13T06:09:40;13.07;;;6.55;;
22236;SDS011;11287;48.122;11.536;2022-12-13T06:12:06;19.05;;;6.03;;
22236;SDS011;11287;48.122;11.536;2022-12-13T06:14:31;16.75;;;5.93;;
22236;SDS011;11287;48.122;11.536;2022-12-13T06:16:57;11.88;;;6.28;;
22236;SDS011;11287;48.122;11.536;2022-12-13T06:19:22;13.20;;;5.65;;
22236;SDS011;11287;48.122;11.536;2022-12-13T06:21:48;13.82;;;6.50;;
22236;SDS011;11287;48.122;11.536;2022-12-13T06:24:15;12.32;;;6.22;;
22236;SDS011;11287;48.122;11.536;2022-12-13T06:26:44;12.25;;;5.82;;
22236;SDS011;11287;48.122;11.536;2022-12-13T06:29:10;12.75;;;6.40;;
22236;SDS011;11287;48.122;11.536;2022-12-13T06:31:35;11.38;;;4.95;;
22236;SDS011;11287;48.122;11.536;2022-12-13T06:34:01;12.80;;;5.47;;
22236;SDS011;11287;48.122;11.536;2022-12-13T06:36:27;12.48;;;5.35;;
22236;SDS011;11287;48.122;11.536;2022-12-13T06:38:53;10.02;;;5.63;;
22236;SDS011;11287;48.122;11.536;2022-12-13T06:41:18;13.13;;;6.07;;
22236;SDS011;11287;48.122;11.536;2022-12-13T06:43:44;12.15;;;5.97;;
22236;SDS011;11287;48.122;11.536;2022-12-13T06:46:10;21.95;;;6.50;;
22236;SDS011;11287;48.122;11.536;2022-12-13T06:48:35;11.70;;;5.85;;
22236;SDS011;11287;48.122;11.536;2022-12-13T06:51:02;8.85;;;5.25;;
22236;SDS011;11287;48.122;11.536;2022-12-13T06:53:28;15.35;;;6.15;;
22236;SDS011;11287;48.122;11.536;2022-12-13T06:55:53;8.20;;;3.45;;
22236;SDS011;11287;48.122;11.536;2022-12-13T06:58:19;14.85;;;6.00;;
22236;SDS011;11287;48.122;11.536;2022-12-13T07:00:44;13.50;;;5.60;;
22236;SDS011;11287;48.122;11.536;2022-12-13T07:03:10;10.32;;;5.85;;
22236;SDS011;11287;48.122;11.536;2022-12-13T07:05:36;13.40;;;6.53;;
22236;SDS011;11287;48.122;11.536;2022-12-13T07:08:02;12.80;;;6.75;;
22236;SDS011;11287;48.122;11.536;2022-12-13T07:10:27;11.77;;;5.05;;
22236;SDS011;11287;48.122;11.536;2022-12-13T07:12:53;11.07;;;5.05;;
22236;SDS011;11287;48.122;11.536;2022-12-13T07:15:18;10.95;;;5.65;;
22236;SDS011;11287;48.122;11.536;2022-12-13T07:17:43;10.77;;;5.63;;
22236;SDS011;11287;48.122;11.536;2022-12-13T07:20:09;9.05;;;5.10;;
22236;SDS011;11287;48.122;11.536;2022-12-13T07:22:37;8.25;;;5.13;;
22236;SDS011;11287;48.122;11.536;2022-12-13T07:25:03;12.73;;;6.93;;
22236;SDS011;11287;48.122;11.536;2022-12-13T07:27:29;13.25;;;5.93;;
22236;SDS011;11287;48.122;11.536;2022-12-13T07:29:54;10.63;;;5.50;;
22236;SDS011;11287;48.122;11.536;2022-12-13T07:32:19;13.18;;;5.82;;
22236;SDS011;11287;48.122;11.536;2022-12-13T07:34:45;12.20;;;6.18;;
22236;SDS011;11287;48.122;11.536;2022-12-13T07:37:10;14.20;;;5.85;;
22236;SDS011;11287;48.122;11.536;2022-12-13T07:39:35;9.50;;;3.72;;
22236;SDS011;11287;48.122;11.536;2022-12-13T07:42:01;13.43;;;6.53;;
22236;SDS011;11287;48.122;11.536;2022-12-13T07:44:26;12.05;;;6.22;;
22236;SDS011;11287;48.122;11.536;2022-12-13T07:46:51;13.40;;;6.70;;
22236;SDS011;11287;48.122;11.536;2022-12-13T07:49:17;11.27;;;5.78;;
22236;SDS011;11287;48.122;11.536;2022-12-13T07:51:42;12.75;;;6.00;;
22236;SDS011;11287;48.122;11.536;2022-12-13T07:54:07;12.10;;;6.00;;
22236;SDS011;11287;48.122;11.536;2022-12-13T07:56:33;11.75;;;6.05;;
22236;SDS011;11287;48.122;11.536;2022-12-13T07:58:59;14.45;;;7.15;;
22236;SDS011;11287;48.122;11.536;2022-12-13T08:01:24;11.52;;;5.20;;
22236;SDS011;11287;48.122;11.536;2022-12-13T08:03:49;16.38;;;6.93;;
22236;SDS011;11287;48.122;11.536;2022-12-13T08:06:15;11.20;;;6.18;;
22236;SDS011;11287;48.122;11.536;2022-12-13T08:08:43;13.27;;;6.85;;
22236;SDS011;11287;48.122;11.536;2022-12-13T08:11:09;12.10;;;6.32;;
22236;SDS011;11287;48.122;11.536;2022-12-13T08:13:36;13.23;;;6.22;;
22236;SDS011;11287;48.122;11.536;2022-12-13T08:16:03;14.70;;;6.22;;
22236;SDS011;11287;48.122;11.536;2022-12-13T08:18:30;28.27;;;11.45;;
22236;SDS011;11287;48.122;11.536;2022-12-13T08:20:57;16.20;;;6.88;;
22236;SDS011;11287;48.122;11.536;2022-12-13T08:23:30;13.43;;;6.13;;
22236;SDS011;11287;48.122;11.536;2022-12-13T08:25:56;7.93;;;4.32;;
22236;SDS011;11287;48.122;11.536;2022-12-13T08:28:21;11.32;;;6.78;;
22236;SDS011;11287;48.122;11.536;2022-12-13T08:30:47;20.70;;;6.85;;
22236;SDS011;11287;48.122;11.536;2022-12-13T08:33:13;12.00;;;5.70;;
22236;SDS011;11287;48.122;11.536;2022-12-13T08:35:39;7.97;;;5.07;;
22236;SDS011;11287;48.122;11.536;2022-12-13T08:38:04;13.63;;;6.95;;
22236;SDS011;11287;48.122;11.536;2022-12-13T08:40:29;16.60;;;6.80;;
22236;SDS011;11287;48.122;11.536;2022-12-13T08:42:55;14.35;;;6.80;;
22236;SDS011;11287;48.122;11.536;2022-12-13T08:45:20;22.67;;;8.15;;
22236;SDS011;11287;48.122;11.536;2022-12-13T08:47:47;7.57;;;3.85;;
22236;SDS011;11287;48.122;11.536;2022-12-13T08:50:13;12.80;;;6.43;;
22236;SDS011;11287;48.122;11.536;2022-12-13T08:52:38;15.18;;;7.28;;
22236;SDS011;11287;48.122;11.536;2022-12-13T08:55:03;6.53;;;3.83;;
22236;SDS011;11287;48.122;11.536;2022-12-13T08:57:29;19.92;;;7.43;;
22236;SDS011;11287;48.122;11.536;2022-12-13T08:59:54;11.52;;;6.05;;
22236;SDS011;11287;48.122;11.536;2022-12-13T09:02:19;19.95;;;7.47;;
22236;SDS011;11287;48.122;11.536;2022-12-13T09:04:45;13.30;;;6.85;;
22236;SDS011;11287;48.122;11.536;2022-12-13T09:07:10;14.20;;;5.82;;
22236;SDS011;11287;48.122;11.536;2022-12-13T09:09:36;15.30;;;6.40;;
22236;SDS011;11287;48.122;11.536;2022-12-13T09:12:01;20.73;;;7.55;;
22236;SDS011;11287;48.122;11.536;2022-12-13T09:14:26;15.40;;;7.95;;
22236;SDS011;11287;48.122;11.536;2022-12-13T09:16:52;17.95;;;7.30;;
22236;SDS011;11287;48.122;11.536;2022-12-13T09:19:17;10.77;;;6.93;;
22236;SDS011;11287;48.122;11.536;2022-12-13T09:21:43;10.98;;;5.82;;
22236;SDS011;11287;48.122;11.536;2022-12-13T09:24:08;14.35;;;8.02;;
22236;SDS011;11287;48.122;11.536;2022-12-13T09:26:33;12.02;;;6.07;;
22236;SDS011;11287;48.122;11.536;2022-12-13T09:28:58;7.50;;;3.83;;
22236;SDS011;11287;48.122;11.536;2022-12-13T09:31:24;5.63;;;2.42;;
22236;SDS011;11287;48.122;11.536;2022-12-13T09:33:49;8.55;;;4.97;;
22236;SDS011;11287;48.122;11.536;2022-12-13T09:36:16;13.77;;;6.50;;
22236;SDS011;11287;48.122;11.536;2022-12-13T09:38:42;11.60;;;6.25;;
22236;SDS011;11287;48.122;11.536;2022-12-13T09:41:14;16.25;;;6.30;;
22236;SDS011;11287;48.122;11.536;2022-12-13T09:43:46;15.05;;;7.28;;
22236;SDS011;11287;48.122;11.536;2022-12-13T09:46:20;12.23;;;5.80;;
22236;SDS011;11287;48.122;11.536;2022-12-13T09:48:52;16.60;;;7.13;;
22236;SDS011;11287;48.122;11.536;2022-12-13T09:51:19;11.02;;;4.63;;
22236;SDS011;11287;48.122;11.536;2022-12-13T09:53:45;12.45;;;6.97;;
22236;SDS011;11287;48.122;11.536;2022-12-13T09:56:13;19.50;;;7.47;;
22236;SDS011;11287;48.122;11.536;2022-12-13T09:58:39;12.23;;;6.82;;
22236;SDS011;11287;48.122;11.536;2022-12-13T10:01:04;17.98;;;7.28;;
22236;SDS011;11287;48.122;11.536;2022-12-13T10:03:30;13.27;;;6.85;;
22236;SDS011;11287;48.122;11.536;2022-12-13T10:05:56;19.33;;;7.43;;
22236;SDS011;11287;48.122;11.536;2022-12-13T10:08:23;18.65;;;7.35;;
22236;SDS011;11287;48.122;11.536;2022-12-13T10:11:01;17.40;;;8.23;;
22236;SDS011;11287;48.122;11.536;2022-12-13T10:13:37;17.70;;;6.78;;
22236;SDS011;11287;48.122;11.536;2022-12-13T10:19:00;18.58;;;6.95;;
22236;SDS011;11287;48.122;11.536;2022-12-13T10:21:35;9.90;;;4.85;;
22236;SDS011;11287;48.122;11.536;2022-12-13T10:24:26;16.50;;;7.82;;
22236;SDS011;11287;48.122;11.536;2022-12-13T10:26:55;14.45;;;7.30;;
22236;SDS011;11287;48.122;11.536;2022-12-13T10:29:21;15.60;;;7.82;;
22236;SDS011;11287;48.122;11.536;2022-12-13T10:31:48;16.85;;;7.35;;
22236;SDS011;11287;48.122;11.536;2022-12-13T10:34:27;17.65;;;7.93;;
22236;SDS011;11287;48.122;11.536;2022-12-13T10:36:54;6.25;;;3.38;;
22236;SDS011;11287;48.122;11.536;2022-12-13T10:39:41;12.98;;;6.72;;
22236;SDS011;11287;48.122;11.536;2022-12-13T10:42:25;17.48;;;7.40;;
22236;SDS011;11287;48.122;11.536;2022-12-13T10:47:39;14.40;;;6.75;;
22236;SDS011;11287;48.122;11.536;2022-12-13T10:50:08;17.10;;;8.07;;
22236;SDS011;11287;48.122;11.536;2022-12-13T10:52:49;18.63;;;8.20;;
22236;SDS011;11287;48.122;11.536;2022-12-13T10:55:25;21.40;;;8.45;;
22236;SDS011;11287;48.122;11.536;2022-12-13T10:57:58;17.23;;;8.40;;
22236;SDS011;11287;48.122;11.536;2022-12-13T11:00:36;15.95;;;7.00;;
22236;SDS011;11287;48.122;11.536;2022-12-13T11:03:06;13.38;;;7.93;;
22236;SDS011;11287;48.122;11.536;2022-12-13T11:06:00;13.50;;;6.63;;
22236;SDS011;11287;48.122;11.536;2022-12-13T11:08:26;13.93;;;7.22;;
22236;SDS011;11287;48.122;11.536;2022-12-13T11:10:55;15.27;;;7.18;;
22236;SDS011;11287;48.122;11.536;2022-12-13T11:16:26;11.25;;;6.03;;
22236;SDS011;11287;48.122;11.536;2022-12-13T11:19:19;14.82;;;6.80;;
22236;SDS011;11287;48.122;11.536;2022-12-13T11:21:47;13.27;;;6.55;;
22236;SDS011;11287;48.122;11.536;2022-12-13T11:24:20;9.23;;;5.80;;
22236;SDS011;11287;48.122;11.536;2022-12-13T11:26:49;12.38;;;6.20;;
22236;SDS011;11287;48.122;11.536;2022-12-13T11:37:52;13.20;;;6.18;;
22236;SDS011;11287;48.122;11.536;2022-12-13T11:40:33;14.65;;;6.75;;
22236;SDS011;11287;48.122;11.536;2022-12-13T11:46:01;20.63;;;8.05;;
22236;SDS011;11287;48.122;11.536;2022-12-13T11:51:13;15.68;;;8.45;;
22236;SDS011;11287;48.122;11.536;2022-12-13T11:53:47;18.27;;;9.38;;
22236;SDS011;11287;48.122;11.536;2022-12-13T11:56:18;17.35;;;8.63;;
22236;SDS011;11287;48.122;11.536;2022-12-13T12:07:24;16.23;;;8.40;;
22236;SDS011;11287;48.122;11.536;2022-12-13T12:09:58;19.13;;;7.93;;
22236;SDS011;11287;48.122;11.536;2022-12-13T12:12:30;15.57;;;8.73;;
22236;SDS011;11287;48.122;11.536;2022-12-13T12:15:01;10.93;;;5.57;;
22236;SDS011;11287;48.122;11.536;2022-12-13T12:17:34;17.58;;;8.95;;
22236;SDS011;11287;48.122;11.536;2022-12-13T12:19:59;18.27;;;9.55;;
22236;SDS011;11287;48.122;11.536;2022-12-13T12:22:37;22.70;;;9.57;;
22236;SDS011;11287;48.122;11.536;2022-12-13T12:25:21;23.02;;;8.05;;
22236;SDS011;11287;48.122;11.536;2022-12-13T12:28:06;19.77;;;9.18;;
22236;SDS011;11287;48.122;11.536;2022-12-13T12:30:57;18.85;;;8.60;;
22236;SDS011;11287;48.122;11.536;2022-12-13T12:44:47;16.55;;;5.22;;
22236;SDS011;11287;48.122;11.536;2022-12-13T12:47:48;12.95;;;6.32;;
22236;SDS011;11287;48.122;11.536;2022-12-13T12:58:39;5.90;;;2.85;;
22236;SDS011;11287;48.122;11.536;2022-12-13T13:04:00;7.57;;;4.32;;
22236;SDS011;11287;48.122;11.536;2022-12-13T13:06:50;12.63;;;6.32;;
22236;SDS011;11287;48.122;11.536;2022-12-13T13:09:20;12.68;;;6.00;;
22236;SDS011;11287;48.122;11.536;2022-12-13T13:11:46;23.25;;;6.47;;
22236;SDS011;11287;48.122;11.536;2022-12-13T13:14:32;11.73;;;6.00;;
22236;SDS011;11287;48.122;11.536;2022-12-13T13:19:52;19.65;;;8.18;;
22236;SDS011;11287;48.122;11.536;2022-12-13T13:22:30;16.17;;;8.27;;
22236;SDS011;11287;48.122;11.536;2022-12-13T13:25:20;18.20;;;8.15;;
22236;SDS011;11287;48.122;11.536;2022-12-13T13:27:51;15.18;;;8.13;;
22236;SDS011;11287;48.122;11.536;2022-12-13T13:30:24;20.73;;;8.60;;
22236;SDS011;11287;48.122;11.536;2022-12-13T13:32:54;17.55;;;8.75;;
22236;SDS011;11287;48.122;11.536;2022-12-13T13:45:23;27.13;;;9.32;;
22236;SDS011;11287;48.122;11.536;2022-12-13T13:47:57;18.13;;;9.40;;
22236;SDS011;11287;48.122;11.536;2022-12-13T13:50:40;17.33;;;8.95;;
22236;SDS011;11287;48.122;11.536;2022-12-13T13:53:33;16.63;;;8.65;;
22236;SDS011;11287;48.122;11.536;2022-12-13T13:59:14;12.13;;;6.85;;
22236;SDS011;11287;48.122;11.536;2022-12-13T14:12:37;18.70;;;8.00;;
22236;SDS011;11287;48.122;11.536;2022-12-13T14:27:15;21.67;;;8.93;;
22236;SDS011;11287;48.122;11.536;2022-12-13T14:32:29;22.65;;;8.68;;
22236;SDS011;11287;48.122;11.536;2022-12-13T14:34:57;20.98;;;7.78;;
22236;SDS011;11287;48.122;11.536;2022-12-13T14:37:27;11.02;;;5.53;;
22236;SDS011;11287;48.122;11.536;2022-12-13T14:40:21;16.30;;;8.00;;
22236;SDS011;11287;48.122;11.536;2022-12-13T14:42:52;8.95;;;4.82;;
22236;SDS011;11287;48.122;11.536;2022-12-13T14:45:21;21.80;;;9.38;;
22236;SDS011;11287;48.122;11.536;2022-12-13T14:47:47;18.35;;;9.23;;
22236;SDS011;11287;48.122;11.536;2022-12-13T14:50:30;15.43;;;7.10;;
22236;SDS011;11287;48.122;11.536;2022-12-13T14:59:53;21.42;;;9.13;;
22236;SDS011;11287;48.122;11.536;2022-12-13T15:02:26;18.20;;;8.27;;
22236;SDS011;11287;48.122;11.536;2022-12-13T15:04:54;19.58;;;10.60;;
22236;SDS011;11287;48.122;11.536;2022-12-13T15:10:03;21.98;;;10.18;;
22236;SDS011;11287;48.122;11.536;2022-12-13T15:16:02;18.23;;;8.65;;
22236;SDS011;11287;48.122;11.536;2022-12-13T15:18:30;24.23;;;10.65;;
22236;SDS011;11287;48.122;11.536;2022-12-13T15:20:56;20.58;;;10.45;;
22236;SDS011;11287;48.122;11.536;2022-12-13T15:23:30;23.63;;;10.23;;
22236;SDS011;11287;48.122;11.536;2022-12-13T15:26:07;20.88;;;8.63;;
22236;SDS011;11287;48.122;11.536;2022-12-13T15:28:36;18.40;;;8.52;;
22236;SDS011;11287;48.122;11.536;2022-12-13T15:31:04;22.50;;;8.30;;
22236;SDS011;11287;48.122;11.536;2022-12-13T15:33:30;15.93;;;7.95;;
22236;SDS011;11287;48.122;11.536;2022-12-13T15:36:00;19.48;;;8.25;;
22236;SDS011;11287;48.122;11.536;2022-12-13T15:38:35;17.08;;;9.43;;
22236;SDS011;11287;48.122;11.536;2022-12-13T15:41:01;17.95;;;8.23;;
22236;SDS011;11287;48.122;11.536;2022-12-13T15:43:35;22.13;;;8.40;;
22236;SDS011;11287;48.122;11.536;2022-12-13T15:46:02;20.90;;;8.52;;
22236;SDS011;11287;48.122;11.536;2022-12-13T15:48:30;20.70;;;9.57;;
22236;SDS011;11287;48.122;11.536;2022-12-13T15:51:07;16.98;;;8.38;;
22236;SDS011;11287;48.122;11.536;2022-12-13T15:56:31;22.50;;;8.23;;
22236;SDS011;11287;48.122;11.536;2022-12-13T15:58:58;24.02;;;7.35;;
22236;SDS011;11287;48.122;11.536;2022-12-13T16:01:24;20.00;;;8.80;;
22236;SDS011;11287;48.122;11.536;2022-12-13T16:03:57;20.25;;;9.52;;
22236;SDS011;11287;48.122;11.536;2022-12-13T16:06:24;16.60;;;8.25;;
22236;SDS011;11287;48.122;11.536;2022-12-13T16:08:51;17.75;;;7.80;;
22236;SDS011;11287;48.122;11.536;2022-12-13T16:11:25;19.17;;;9.23;;
22236;SDS011;11287;48.122;11.536;2022-12-13T16:13:50;19.55;;;9.32;;
22236;SDS011;11287;48.122;11.536;2022-12-13T16:16:20;19.05;;;9.32;;
22236;SDS011;11287;48.122;11.536;2022-12-13T16:18:51;19.67;;;9.43;;
22236;SDS011;11287;48.122;11.536;2022-12-13T16:21:21;18.00;;;9.27;;
22236;SDS011;11287;48.122;11.536;2022-12-13T16:23:46;23.90;;;10.00;;
22236;SDS011;11287;48.122;11.536;2022-12-13T16:26:12;18.23;;;10.48;;
22236;SDS011;11287;48.122;11.536;2022-12-13T16:28:38;21.13;;;10.68;;
22236;SDS011;11287;48.122;11.536;2022-12-13T16:31:15;23.20;;;10.73;;
22236;SDS011;11287;48.122;11.536;2022-12-13T16:33:42;16.58;;;7.07;;
22236;SDS011;11287;48.122;11.536;2022-12-13T16:36:09;23.30;;;10.30;;
22236;SDS011;11287;48.122;11.536;2022-12-13T16:38:34;21.27;;;10.80;;
22236;SDS011;11287;48.122;11.536;2022-12-13T16:41:00;21.92;;;11.43;;
22236;SDS011;11287;48.122;11.536;2022-12-13T16:43:26;20.40;;;9.07;;
22236;SDS011;11287;48.122;11.536;2022-12-13T16:45:52;23.50;;;11.32;;
22236;SDS011;11287;48.122;11.536;2022-12-13T16:48:18;22.73;;;11.63;;